Time;durP1;ratioP1;P1;durP2;ratioP2;P2;SDS_P1;SDS_P2;PMS_P1;PMS_P2;Temp;Humidity;BMP_temperature;BMP_pressure;BME280_temperature;BME280_humidity;BME280_pressure;Samples;Min_cycle;Max_cycle;Signal;HPM_P1;HPM_P2
2022/03/27 00:00:51;;;;;;;15.63;6.70;;;;;;;;;;5014529;28;20406;-49
2022/03/27 00:03:17;;;;;;;8.03;7.17;;;;;;;;;;5025939;28;21153;-50
2022/03/27 00:05:43;;;;;;;8.70;6.93;;;;;;;;;;5034592;28;20469;-51
2022/03/27 00:08:10;;;;;;;8.97;6.10;;;;;;;;;;5034597;28;20457;-51
2022/03/27 00:13:21;;;;;;;9.97;6.80;;;;;;;;;;5034414;28;20421;-50
2022/03/27 00:15:47;;;;;;;8.23;7.10;;;;;;;;;;5016493;28;20419;-50
2022/03/27 00:18:13;;;;;;;11.77;7.90;;;;;;;;;;5034728;28;20504;-49
2022/03/27 00:20:39;;;;;;;13.80;7.40;;;;;;;;;;5033943;28;20402;-51
2022/03/27 00:23:05;;;;;;;8.03;6.20;;;;;;;;;;5034163;28;20924;-50
2022/03/27 00:25:31;;;;;;;10.50;6.87;;;;;;;;;;5029973;28;20446;-49
2022/03/27 00:27:57;;;;;;;8.50;6.77;;;;;;;;;;5014324;28;20437;-50
2022/03/27 00:30:23;;;;;;;12.30;6.97;;;;;;;;;;5013264;28;20526;-49
2022/03/27 00:32:49;;;;;;;10.70;7.17;;;;;;;;;;4996490;28;20439;-50
2022/03/27 00:35:15;;;;;;;9.10;6.57;;;;;;;;;;5010806;28;20418;-50
2022/03/27 00:37:41;;;;;;;13.87;7.80;;;;;;;;;;4995369;28;20467;-51
2022/03/27 00:40:09;;;;;;;8.20;7.30;;;;;;;;;;5013595;28;20426;-51
2022/03/27 00:42:35;;;;;;;7.90;6.33;;;;;;;;;;5013909;28;20439;-50
2022/03/27 00:45:02;;;;;;;8.63;6.43;;;;;;;;;;5013737;28;20458;-50
2022/03/27 00:47:28;;;;;;;10.10;7.60;;;;;;;;;;5013696;28;20434;-51
2022/03/27 00:49:54;;;;;;;10.33;6.93;;;;;;;;;;5013664;28;20413;-50
2022/03/27 00:52:20;;;;;;;9.27;7.20;;;;;;;;;;5013562;28;20514;-48
2022/03/27 00:54:46;;;;;;;15.50;7.27;;;;;;;;;;5013976;28;20411;-51
2022/03/27 00:57:12;;;;;;;9.93;7.37;;;;;;;;;;5013595;28;20419;-50
2022/03/27 00:59:38;;;;;;;9.10;6.87;;;;;;;;;;5013178;28;20416;-51
2022/03/27 01:02:04;;;;;;;15.73;7.90;;;;;;;;;;5013131;28;20431;-51
2022/03/27 01:04:30;;;;;;;14.00;8.07;;;;;;;;;;5013450;28;20437;-51
2022/03/27 01:06:58;;;;;;;7.30;6.60;;;;;;;;;;5013568;28;20419;-49
2022/03/27 01:09:36;;;;;;;13.43;7.40;;;;;;;;;;5011624;28;20480;-49
2022/03/27 01:12:13;;;;;;;13.80;7.47;;;;;;;;;;5013220;28;20454;-51
2022/03/27 01:14:54;;;;;;;11.20;7.30;;;;;;;;;;5013369;28;20402;-50
2022/03/27 01:17:22;;;;;;;9.60;7.57;;;;;;;;;;5013263;28;20494;-50
2022/03/27 01:19:50;;;;;;;11.10;8.10;;;;;;;;;;5013024;28;20973;-50
2022/03/27 01:22:17;;;;;;;10.50;8.07;;;;;;;;;;5012556;28;20523;-49
2022/03/27 01:24:43;;;;;;;13.60;7.73;;;;;;;;;;5013227;28;20454;-50
2022/03/27 01:27:09;;;;;;;12.37;7.90;;;;;;;;;;5013405;28;20396;-51
2022/03/27 01:29:35;;;;;;;8.43;6.73;;;;;;;;;;5012447;28;20513;-50
2022/03/27 01:32:03;;;;;;;12.10;8.20;;;;;;;;;;5012463;28;20529;-48
2022/03/27 01:34:29;;;;;;;12.23;7.97;;;;;;;;;;5012744;28;20426;-49
2022/03/27 01:36:55;;;;;;;17.97;8.80;;;;;;;;;;5012349;28;20422;-49
2022/03/27 01:39:22;;;;;;;13.53;9.30;;;;;;;;;;5012754;28;20915;-48
2022/03/27 01:41:48;;;;;;;9.10;7.53;;;;;;;;;;5012455;28;20520;-50
2022/03/27 01:44:15;;;;;;;13.10;9.13;;;;;;;;;;5000019;28;20414;-50
2022/03/27 01:46:42;;;;;;;10.67;8.77;;;;;;;;;;4993231;28;20463;-51
2022/03/27 01:49:09;;;;;;;13.43;8.73;;;;;;;;;;5012967;28;20399;-50
2022/03/27 01:51:36;;;;;;;10.70;8.13;;;;;;;;;;5012233;28;20473;-51
2022/03/27 01:54:02;;;;;;;13.17;9.60;;;;;;;;;;5012492;28;20949;-50
2022/03/27 01:56:28;;;;;;;11.13;8.93;;;;;;;;;;4994712;28;20417;-49
2022/03/27 01:58:54;;;;;;;12.60;10.20;;;;;;;;;;5012737;28;20446;-51
2022/03/27 02:01:20;;;;;;;15.53;10.37;;;;;;;;;;5011896;28;20462;-51
2022/03/27 02:03:47;;;;;;;17.13;10.77;;;;;;;;;;5011175;28;20441;-50
2022/03/27 02:06:13;;;;;;;15.80;10.73;;;;;;;;;;5012209;28;20528;-49
2022/03/27 02:08:40;;;;;;;14.80;10.60;;;;;;;;;;5012538;28;20903;-50
2022/03/27 02:11:06;;;;;;;24.13;11.30;;;;;;;;;;4994700;28;20909;-50
2022/03/27 02:13:32;;;;;;;15.13;11.07;;;;;;;;;;5012133;28;20529;-50
2022/03/27 02:15:59;;;;;;;16.17;10.70;;;;;;;;;;5012341;28;20430;-48
2022/03/27 02:18:26;;;;;;;13.43;9.33;;;;;;;;;;5012163;28;20421;-49
2022/03/27 02:20:54;;;;;;;16.93;10.93;;;;;;;;;;5011550;28;20919;-50
2022/03/27 02:23:20;;;;;;;16.40;10.53;;;;;;;;;;5011768;28;20435;-50
2022/03/27 02:25:46;;;;;;;16.50;11.90;;;;;;;;;;5011863;28;20840;-49
2022/03/27 02:28:12;;;;;;;14.70;10.03;;;;;;;;;;5012197;28;20419;-49
2022/03/27 02:30:38;;;;;;;14.80;11.50;;;;;;;;;;5011870;28;20830;-50
2022/03/27 02:33:04;;;;;;;19.60;11.80;;;;;;;;;;5011087;28;20448;-49
2022/03/27 02:35:30;;;;;;;18.03;11.13;;;;;;;;;;5011946;28;20429;-49
2022/03/27 02:37:56;;;;;;;21.10;10.80;;;;;;;;;;5011726;28;20423;-49
2022/03/27 02:40:22;;;;;;;18.93;12.73;;;;;;;;;;5011320;28;20435;-49
2022/03/27 02:42:48;;;;;;;13.47;11.10;;;;;;;;;;5011738;28;20658;-50
2022/03/27 02:45:14;;;;;;;18.13;12.17;;;;;;;;;;5011877;28;20461;-50
2022/03/27 02:47:40;;;;;;;15.10;12.20;;;;;;;;;;5011889;28;20400;-51
2022/03/27 02:50:06;;;;;;;15.70;12.50;;;;;;;;;;5011603;28;20922;-49
2022/03/27 02:52:33;;;;;;;15.50;12.20;;;;;;;;;;5011583;28;20433;-49
2022/03/27 02:54:59;;;;;;;17.43;12.97;;;;;;;;;;5011435;28;20418;-48
2022/03/27 02:57:25;;;;;;;24.87;12.60;;;;;;;;;;5011953;28;20431;-50
2022/03/27 02:59:52;;;;;;;14.60;11.77;;;;;;;;;;5011511;28;20428;-51
2022/03/27 03:02:18;;;;;;;21.20;12.47;;;;;;;;;;5011639;28;20531;-50
2022/03/27 03:04:44;;;;;;;19.07;12.10;;;;;;;;;;5011745;28;20605;-49
2022/03/27 03:07:10;;;;;;;20.37;12.53;;;;;;;;;;5011429;28;20499;-50
2022/03/27 03:09:37;;;;;;;12.90;11.30;;;;;;;;;;5011384;28;20913;-50
2022/03/27 03:12:03;;;;;;;18.20;13.27;;;;;;;;;;5011272;28;20447;-50
2022/03/27 03:14:29;;;;;;;20.97;13.33;;;;;;;;;;5011576;28;20791;-50
2022/03/27 03:16:56;;;;;;;17.93;13.20;;;;;;;;;;5011547;28;20418;-49
2022/03/27 03:19:22;;;;;;;18.97;14.17;;;;;;;;;;5011330;28;20411;-50
2022/03/27 03:21:49;;;;;;;20.50;15.43;;;;;;;;;;5011384;28;20453;-50
2022/03/27 03:24:14;;;;;;;18.47;14.73;;;;;;;;;;5011563;28;20417;-49
2022/03/27 03:26:40;;;;;;;20.43;14.70;;;;;;;;;;5011303;28;20458;-49
2022/03/27 03:29:06;;;;;;;22.27;15.57;;;;;;;;;;5011559;28;20440;-49
2022/03/27 03:31:32;;;;;;;28.93;17.03;;;;;;;;;;5010387;28;20426;-50
2022/03/27 03:33:59;;;;;;;21.93;16.23;;;;;;;;;;5013912;28;20966;-50
2022/03/27 03:36:25;;;;;;;23.40;16.73;;;;;;;;;;5015115;28;20430;-51
2022/03/27 03:38:51;;;;;;;20.50;15.53;;;;;;;;;;5015100;28;20509;-50
2022/03/27 03:41:18;;;;;;;24.07;16.00;;;;;;;;;;5014329;28;20419;-50
2022/03/27 03:43:43;;;;;;;26.53;17.00;;;;;;;;;;5015006;28;20419;-50
2022/03/27 03:46:10;;;;;;;19.87;16.33;;;;;;;;;;5014944;28;20889;-49
2022/03/27 03:48:36;;;;;;;24.73;16.30;;;;;;;;;;5015015;28;20451;-49
2022/03/27 03:51:02;;;;;;;22.47;17.33;;;;;;;;;;5015122;28;20415;-48
2022/03/27 03:53:28;;;;;;;25.73;17.57;;;;;;;;;;5014140;28;20444;-50
2022/03/27 03:55:54;;;;;;;24.70;16.03;;;;;;;;;;5014419;28;20419;-50
2022/03/27 03:58:20;;;;;;;25.50;17.17;;;;;;;;;;5014751;28;20522;-50
2022/03/27 04:00:47;;;;;;;21.57;16.93;;;;;;;;;;5014243;28;20498;-50
2022/03/27 04:03:14;;;;;;;20.73;17.07;;;;;;;;;;4997106;28;20465;-50
2022/03/27 04:05:40;;;;;;;22.93;16.27;;;;;;;;;;5014166;28;20462;-50
2022/03/27 04:08:06;;;;;;;20.60;17.17;;;;;;;;;;5014656;28;20501;-50
2022/03/27 04:10:32;;;;;;;23.57;17.03;;;;;;;;;;5014031;28;20792;-49
2022/03/27 04:12:58;;;;;;;23.87;17.90;;;;;;;;;;5014505;28;20415;-48
2022/03/27 04:15:24;;;;;;;24.87;18.87;;;;;;;;;;5014037;28;20541;-49
2022/03/27 04:17:51;;;;;;;25.00;18.87;;;;;;;;;;5014660;28;20406;-49
2022/03/27 04:20:17;;;;;;;21.97;16.97;;;;;;;;;;5013807;28;20511;-48
2022/03/27 04:22:44;;;;;;;23.20;17.73;;;;;;;;;;5008671;28;20435;-49
2022/03/27 04:25:10;;;;;;;24.17;18.70;;;;;;;;;;4994989;28;20935;-50
2022/03/27 04:27:37;;;;;;;29.97;19.53;;;;;;;;;;5007246;28;20411;-50
2022/03/27 04:30:09;;;;;;;25.57;19.13;;;;;;;;;;5014122;28;20435;-50
2022/03/27 04:32:39;;;;;;;26.47;19.70;;;;;;;;;;5014180;28;20491;-50
2022/03/27 04:35:06;;;;;;;24.20;19.40;;;;;;;;;;5014258;28;20498;-50
2022/03/27 04:37:32;;;;;;;22.17;18.43;;;;;;;;;;5014226;28;20417;-50
2022/03/27 04:40:02;;;;;;;26.67;19.53;;;;;;;;;;4999822;28;20408;-50
2022/03/27 04:42:31;;;;;;;27.63;17.87;;;;;;;;;;4994703;28;20423;-49
2022/03/27 04:44:57;;;;;;;23.90;17.90;;;;;;;;;;4994168;28;20451;-51
2022/03/27 04:47:23;;;;;;;26.13;19.03;;;;;;;;;;4994406;28;20412;-50
2022/03/27 04:49:49;;;;;;;31.73;19.40;;;;;;;;;;4998424;28;20411;-51
2022/03/27 04:52:15;;;;;;;24.63;19.37;;;;;;;;;;5013651;28;21010;-51
2022/03/27 04:54:41;;;;;;;28.70;18.97;;;;;;;;;;5012892;28;20419;-49
2022/03/27 04:57:07;;;;;;;31.63;20.20;;;;;;;;;;5013678;28;20500;-50
2022/03/27 04:59:33;;;;;;;27.27;19.40;;;;;;;;;;5013716;28;20399;-50
2022/03/27 05:02:00;;;;;;;24.67;19.53;;;;;;;;;;5012954;28;20534;-51
2022/03/27 05:04:26;;;;;;;29.53;21.17;;;;;;;;;;5011813;28;20442;-49
2022/03/27 05:06:52;;;;;;;34.47;21.20;;;;;;;;;;5011315;28;20461;-50
2022/03/27 05:09:19;;;;;;;28.63;19.70;;;;;;;;;;5005838;28;20845;-50
2022/03/27 05:11:45;;;;;;;38.27;22.87;;;;;;;;;;4995109;28;20412;-52
2022/03/27 05:14:11;;;;;;;32.40;22.73;;;;;;;;;;5010783;28;20404;-51
2022/03/27 05:16:37;;;;;;;39.80;22.60;;;;;;;;;;5012577;28;20903;-52
2022/03/27 05:19:04;;;;;;;32.73;22.37;;;;;;;;;;5012570;28;20411;-50
2022/03/27 05:21:30;;;;;;;33.03;22.17;;;;;;;;;;5012335;28;20454;-51
2022/03/27 05:23:56;;;;;;;39.30;23.53;;;;;;;;;;5012391;28;20442;-51
2022/03/27 05:26:22;;;;;;;36.67;23.17;;;;;;;;;;5008346;28;20494;-51
2022/03/27 05:28:48;;;;;;;35.97;23.00;;;;;;;;;;5003650;28;20439;-51
2022/03/27 05:31:14;;;;;;;33.03;21.83;;;;;;;;;;4999115;28;20405;-53
2022/03/27 05:33:40;;;;;;;43.80;24.90;;;;;;;;;;4994156;28;20435;-50
2022/03/27 05:36:10;;;;;;;38.50;25.87;;;;;;;;;;5013060;28;20415;-52
2022/03/27 05:38:39;;;;;;;47.33;26.80;;;;;;;;;;5013031;28;20411;-51
2022/03/27 05:41:09;;;;;;;45.00;27.03;;;;;;;;;;5012115;28;20852;-52
2022/03/27 05:43:35;;;;;;;55.10;28.87;;;;;;;;;;5002081;28;20514;-51
2022/03/27 05:46:02;;;;;;;60.17;32.60;;;;;;;;;;5012091;28;20503;-52
2022/03/27 05:48:28;;;;;;;92.77;39.40;;;;;;;;;;5011456;28;20422;-50
2022/03/27 05:50:54;;;;;;;102.90;39.97;;;;;;;;;;5006728;28;20513;-51
2022/03/27 05:53:20;;;;;;;111.67;40.20;;;;;;;;;;5011674;28;20797;-52
2022/03/27 05:55:49;;;;;;;91.20;37.23;;;;;;;;;;5011357;28;20435;-52
2022/03/27 05:58:18;;;;;;;88.93;36.10;;;;;;;;;;5011493;28;20436;-50
2022/03/27 06:00:44;;;;;;;90.83;36.73;;;;;;;;;;5011530;28;20451;-52
2022/03/27 06:03:10;;;;;;;85.77;36.10;;;;;;;;;;4993126;28;20451;-51
2022/03/27 06:05:36;;;;;;;70.20;32.83;;;;;;;;;;4999096;28;20859;-51
2022/03/27 06:08:05;;;;;;;74.30;35.87;;;;;;;;;;5012578;28;20908;-51
2022/03/27 06:10:38;;;;;;;72.33;35.87;;;;;;;;;;5012471;28;20498;-51
2022/03/27 06:13:04;;;;;;;86.77;35.80;;;;;;;;;;5012404;28;20829;-49
2022/03/27 06:15:31;;;;;;;71.00;33.80;;;;;;;;;;5012429;28;20411;-49
2022/03/27 06:17:58;;;;;;;65.20;32.40;;;;;;;;;;5004962;28;20412;-51
2022/03/27 06:20:25;;;;;;;63.57;30.70;;;;;;;;;;4992563;28;20405;-52
2022/03/27 06:22:51;;;;;;;63.00;31.43;;;;;;;;;;4992614;28;20428;-51
2022/03/27 06:25:18;;;;;;;61.10;30.63;;;;;;;;;;4998735;28;20433;-51
2022/03/27 06:27:44;;;;;;;63.27;30.07;;;;;;;;;;5012076;28;20984;-52
2022/03/27 06:30:13;;;;;;;74.20;33.67;;;;;;;;;;5011680;28;20454;-52
2022/03/27 06:32:39;;;;;;;66.30;32.60;;;;;;;;;;5012072;28;20435;-51
2022/03/27 06:35:06;;;;;;;64.47;33.60;;;;;;;;;;5011642;28;20757;-49
2022/03/27 06:37:32;;;;;;;66.53;34.17;;;;;;;;;;5007467;28;20415;-52
2022/03/27 06:39:59;;;;;;;67.70;34.03;;;;;;;;;;5005670;28;20423;-50
2022/03/27 06:42:28;;;;;;;63.90;31.60;;;;;;;;;;5010847;28;20565;-51
2022/03/27 06:44:54;;;;;;;59.53;30.67;;;;;;;;;;5011064;28;20459;-49
2022/03/27 06:47:21;;;;;;;62.17;30.83;;;;;;;;;;5011193;28;20411;-51
2022/03/27 06:49:47;;;;;;;62.50;31.13;;;;;;;;;;5009469;28;20423;-49
2022/03/27 06:52:14;;;;;;;67.27;30.13;;;;;;;;;;5010830;28;20443;-51
2022/03/27 06:54:40;;;;;;;38.03;24.00;;;;;;;;;;5011858;28;20414;-50
2022/03/27 06:57:06;;;;;;;48.23;25.13;;;;;;;;;;5012137;28;20490;-51
2022/03/27 07:03:01;;;;;;;43.17;26.73;;;;;;;;;;4998830;28;20400;-51
2022/03/27 07:05:03;;;;;;;47.70;27.03;;;;;;;;;;5010596;28;20517;-48
2022/03/27 07:07:29;;;;;;;41.23;24.80;;;;;;;;;;5012526;28;20415;-47
2022/03/27 07:09:56;;;;;;;42.47;25.77;;;;;;;;;;5002433;28;20411;-49
2022/03/27 07:12:22;;;;;;;42.20;25.63;;;;;;;;;;4996124;28;20430;-47
2022/03/27 07:14:48;;;;;;;38.23;25.17;;;;;;;;;;5015723;28;20498;-48
2022/03/27 07:17:17;;;;;;;49.63;27.30;;;;;;;;;;5015602;28;20418;-50
2022/03/27 07:19:44;;;;;;;41.30;25.40;;;;;;;;;;5015555;28;20434;-47
2022/03/27 07:22:10;;;;;;;42.33;24.97;;;;;;;;;;5015543;28;20419;-48
2022/03/27 07:24:36;;;;;;;44.83;25.80;;;;;;;;;;5014479;28;20503;-47
2022/03/27 07:27:02;;;;;;;36.93;21.10;;;;;;;;;;4995997;28;20498;-47
2022/03/27 07:29:30;;;;;;;36.90;23.53;;;;;;;;;;4995809;28;20960;-47
2022/03/27 07:31:57;;;;;;;40.63;22.77;;;;;;;;;;5011028;28;20439;-47
2022/03/27 07:34:23;;;;;;;31.20;21.37;;;;;;;;;;5015171;28;20411;-47
2022/03/27 07:36:49;;;;;;;34.07;20.97;;;;;;;;;;5015416;28;20786;-47
2022/03/27 07:39:15;;;;;;;33.57;22.77;;;;;;;;;;5015245;28;20414;-47
2022/03/27 07:41:41;;;;;;;32.33;21.17;;;;;;;;;;5014659;28;20802;-47
2022/03/27 07:44:07;;;;;;;34.03;20.70;;;;;;;;;;5015083;28;20419;-49
2022/03/27 07:46:33;;;;;;;28.57;19.80;;;;;;;;;;5006423;28;20540;-47
2022/03/27 07:48:59;;;;;;;30.10;20.67;;;;;;;;;;4995582;28;20495;-47
2022/03/27 07:51:25;;;;;;;35.30;22.17;;;;;;;;;;5010270;28;20842;-47
2022/03/27 07:53:52;;;;;;;32.00;20.47;;;;;;;;;;5015160;28;20410;-47
2022/03/27 07:56:18;;;;;;;31.57;21.37;;;;;;;;;;5015117;28;20411;-47
2022/03/27 07:58:44;;;;;;;30.03;20.77;;;;;;;;;;5015126;28;20441;-47
2022/03/27 08:01:12;;;;;;;31.20;20.20;;;;;;;;;;5014993;28;21045;-47
2022/03/27 08:03:39;;;;;;;29.43;20.80;;;;;;;;;;4999226;28;21036;-47
2022/03/27 08:06:06;;;;;;;32.53;20.50;;;;;;;;;;4995171;28;20874;-49
2022/03/27 08:08:32;;;;;;;33.53;21.80;;;;;;;;;;4995261;28;20407;-47
2022/03/27 08:10:58;;;;;;;34.97;22.40;;;;;;;;;;4995064;28;21057;-48
2022/03/27 08:13:24;;;;;;;29.60;21.07;;;;;;;;;;4994969;28;20494;-47
2022/03/27 08:15:51;;;;;;;29.47;20.47;;;;;;;;;;4995170;28;20411;-47
2022/03/27 08:18:17;;;;;;;30.60;21.03;;;;;;;;;;4994423;28;20468;-47
2022/03/27 08:20:43;;;;;;;35.07;21.70;;;;;;;;;;4994883;28;20491;-48
2022/03/27 08:23:09;;;;;;;29.97;21.97;;;;;;;;;;4995045;28;20511;-47
2022/03/27 08:28:25;;;;;;;30.30;20.57;;;;;;;;;;4984824;28;20425;-47
2022/03/27 08:30:51;;;;;;;30.40;21.97;;;;;;;;;;4994723;28;20437;-49
2022/03/27 08:33:18;;;;;;;28.37;19.43;;;;;;;;;;4994631;28;20421;-48
2022/03/27 08:35:44;;;;;;;30.17;19.33;;;;;;;;;;4994787;28;20499;-48
2022/03/27 08:38:13;;;;;;;30.43;21.23;;;;;;;;;;4994835;28;20491;-47
2022/03/27 08:40:44;;;;;;;30.43;21.17;;;;;;;;;;5013837;28;20408;-47
2022/03/27 08:43:11;;;;;;;30.37;21.30;;;;;;;;;;5014119;28;20423;-47
2022/03/27 08:45:37;;;;;;;24.63;19.50;;;;;;;;;;5014167;28;20458;-48
2022/03/27 08:48:04;;;;;;;28.50;20.20;;;;;;;;;;5014159;28;20399;-46
2022/03/27 08:50:34;;;;;;;32.43;20.63;;;;;;;;;;5013862;28;20434;-50
2022/03/27 08:53:07;;;;;;;28.10;19.87;;;;;;;;;;5013871;28;20429;-50
2022/03/27 08:55:33;;;;;;;27.60;21.40;;;;;;;;;;5013993;28;20487;-46
2022/03/27 08:58:00;;;;;;;31.10;18.10;;;;;;;;;;5013956;28;20496;-48
2022/03/27 09:00:29;;;;;;;28.10;19.30;;;;;;;;;;5013691;28;20408;-51
2022/03/27 09:02:56;;;;;;;26.00;19.93;;;;;;;;;;5013680;28;20484;-51
2022/03/27 09:05:23;;;;;;;27.03;20.77;;;;;;;;;;5013700;28;20535;-50
2022/03/27 09:07:49;;;;;;;31.10;19.80;;;;;;;;;;5013761;28;20431;-49
2022/03/27 09:10:16;;;;;;;26.57;18.87;;;;;;;;;;5013278;28;21003;-49
2022/03/27 09:12:43;;;;;;;28.27;19.63;;;;;;;;;;5013346;28;20967;-51
2022/03/27 09:15:10;;;;;;;26.53;18.80;;;;;;;;;;5013031;28;20415;-51
2022/03/27 09:17:54;;;;;;;23.87;18.37;;;;;;;;;;5012742;28;20428;-51
2022/03/27 09:20:34;;;;;;;25.13;18.30;;;;;;;;;;5005466;28;20429;-49
2022/03/27 09:23:09;;;;;;;23.97;17.13;;;;;;;;;;5011101;28;20648;-50
2022/03/27 09:25:44;;;;;;;23.60;19.40;;;;;;;;;;5011332;28;20462;-50
2022/03/27 09:28:13;;;;;;;26.63;19.03;;;;;;;;;;4994508;28;20501;-50
2022/03/27 09:30:47;;;;;;;24.47;17.40;;;;;;;;;;4998206;28;20416;-50
2022/03/27 09:33:30;;;;;;;26.47;19.40;;;;;;;;;;5013165;28;20414;-50
2022/03/27 09:36:09;;;;;;;31.03;18.70;;;;;;;;;;5012662;28;20499;-52
2022/03/27 09:38:36;;;;;;;25.97;18.73;;;;;;;;;;5013056;28;20430;-51
2022/03/27 09:41:02;;;;;;;31.20;20.50;;;;;;;;;;5012171;28;20862;-51
2022/03/27 09:43:28;;;;;;;20.87;16.30;;;;;;;;;;5012538;28;20808;-51
2022/03/27 09:45:56;;;;;;;23.13;16.43;;;;;;;;;;5013148;28;20460;-50
2022/03/27 09:48:23;;;;;;;18.40;15.47;;;;;;;;;;5012464;28;20420;-51
2022/03/27 09:51:01;;;;;;;23.50;14.70;;;;;;;;;;5069029;28;20564;-51
2022/03/27 09:53:35;;;;;;;15.47;13.17;;;;;;;;;;5050398;28;20471;-51
2022/03/27 09:56:01;;;;;;;17.90;13.37;;;;;;;;;;5049211;28;20363;-50
2022/03/27 09:58:33;;;;;;;15.63;11.83;;;;;;;;;;5044190;28;20420;-52
2022/03/27 10:01:10;;;;;;;18.90;13.17;;;;;;;;;;5044782;28;20454;-50
2022/03/27 10:03:38;;;;;;;18.60;14.53;;;;;;;;;;5044528;28;20436;-52
2022/03/27 10:06:04;;;;;;;21.73;15.97;;;;;;;;;;5046866;28;20388;-52
2022/03/27 10:08:30;;;;;;;23.17;17.10;;;;;;;;;;5047834;28;20964;-52
2022/03/27 10:10:58;;;;;;;19.43;14.63;;;;;;;;;;5048080;28;20483;-49
2022/03/27 10:13:31;;;;;;;17.27;13.90;;;;;;;;;;5048173;28;20446;-48
2022/03/27 10:15:59;;;;;;;14.93;12.33;;;;;;;;;;5047052;28;20457;-51
2022/03/27 10:18:28;;;;;;;20.83;17.07;;;;;;;;;;5029062;28;20391;-46
2022/03/27 10:20:57;;;;;;;26.60;18.47;;;;;;;;;;5035622;28;20423;-50
2022/03/27 10:23:26;;;;;;;22.50;17.03;;;;;;;;;;5048820;28;20820;-46
2022/03/27 10:25:59;;;;;;;18.77;16.30;;;;;;;;;;5049815;28;20401;-52
2022/03/27 10:28:27;;;;;;;20.47;15.20;;;;;;;;;;5052263;28;20474;-46
2022/03/27 10:30:53;;;;;;;18.67;14.80;;;;;;;;;;5048267;28;20401;-49
2022/03/27 10:33:21;;;;;;;17.23;14.77;;;;;;;;;;5046942;28;20443;-46
2022/03/27 10:35:49;;;;;;;18.00;13.80;;;;;;;;;;5048350;28;20902;-46
2022/03/27 10:38:34;;;;;;;21.47;15.80;;;;;;;;;;5048312;28;20453;-49
2022/03/27 10:41:12;;;;;;;18.80;16.17;;;;;;;;;;5048017;28;20412;-47
2022/03/27 10:43:54;;;;;;;20.37;16.53;;;;;;;;;;5047301;28;20433;-49
2022/03/27 10:46:29;;;;;;;20.47;15.83;;;;;;;;;;5046575;28;20414;-50
2022/03/27 10:49:09;;;;;;;19.57;16.10;;;;;;;;;;5047859;28;20404;-49
2022/03/27 10:51:36;;;;;;;16.47;14.80;;;;;;;;;;5047839;28;20396;-51
2022/03/27 10:54:05;;;;;;;17.93;16.13;;;;;;;;;;5046903;28;20798;-51
2022/03/27 10:56:32;;;;;;;16.23;14.63;;;;;;;;;;5047917;28;20385;-50
2022/03/27 10:59:09;;;;;;;17.20;15.00;;;;;;;;;;5046530;28;20451;-51
2022/03/27 11:01:54;;;;;;;34.93;27.73;;;;;;;;;;5038126;28;20413;-51
2022/03/27 11:04:27;;;;;;;16.90;15.13;;;;;;;;;;5033502;28;20449;-52
2022/03/27 11:07:12;;;;;;;17.47;15.67;;;;;;;;;;5034248;28;20395;-51
2022/03/27 11:09:39;;;;;;;19.97;16.73;;;;;;;;;;5032960;28;20479;-51
2022/03/27 11:12:24;;;;;;;17.47;15.67;;;;;;;;;;5033506;28;20571;-51
2022/03/27 11:14:53;;;;;;;17.37;15.67;;;;;;;;;;5034146;28;20821;-51
2022/03/27 11:17:44;;;;;;;17.80;15.97;;;;;;;;;;5034270;28;20406;-51
2022/03/27 11:20:33;;;;;;;18.00;16.10;;;;;;;;;;5033063;28;20461;-51
2022/03/27 11:23:00;;;;;;;19.60;16.17;;;;;;;;;;5033276;28;20449;-50
2022/03/27 11:25:29;;;;;;;17.30;15.27;;;;;;;;;;5034232;28;20404;-52
2022/03/27 11:27:56;;;;;;;19.40;15.50;;;;;;;;;;5033229;28;21112;-52
2022/03/27 11:30:22;;;;;;;16.67;14.60;;;;;;;;;;5033475;28;20442;-51
2022/03/27 11:33:08;;;;;;;17.80;15.73;;;;;;;;;;5032001;28;20479;-52
2022/03/27 11:35:34;;;;;;;18.33;14.10;;;;;;;;;;5033711;28;20459;-52
2022/03/27 11:38:18;;;;;;;14.47;13.07;;;;;;;;;;5034015;28;20421;-50
2022/03/27 11:40:44;;;;;;;17.90;14.60;;;;;;;;;;5033561;28;20511;-51
2022/03/27 11:43:45;;;;;;;17.23;15.53;;;;;;;;;;5032746;28;20441;-52
2022/03/27 11:46:20;;;;;;;15.33;13.57;;;;;;;;;;5017283;28;20949;-53
2022/03/27 11:48:59;;;;;;;16.20;14.63;;;;;;;;;;5010543;28;20429;-52
2022/03/27 11:51:26;;;;;;;20.13;14.70;;;;;;;;;;5011358;28;20501;-50
2022/03/27 11:53:53;;;;;;;16.00;14.30;;;;;;;;;;5019115;28;20453;-53
2022/03/27 11:56:19;;;;;;;15.27;13.67;;;;;;;;;;5033256;28;20414;-51
2022/03/27 11:59:02;;;;;;;16.10;13.93;;;;;;;;;;5033490;28;20422;-52
2022/03/27 12:01:28;;;;;;;17.63;14.57;;;;;;;;;;5033291;28;20399;-51
2022/03/27 12:03:58;;;;;;;14.87;13.40;;;;;;;;;;5033758;28;20459;-50
2022/03/27 12:06:27;;;;;;;16.03;14.30;;;;;;;;;;5033476;28;20898;-53
2022/03/27 12:08:53;;;;;;;15.73;14.13;;;;;;;;;;5033226;28;20824;-52
2022/03/27 12:11:23;;;;;;;16.63;14.20;;;;;;;;;;5033194;28;20895;-52
2022/03/27 12:13:49;;;;;;;15.33;13.50;;;;;;;;;;5032257;28;20516;-52
2022/03/27 12:16:16;;;;;;;15.13;13.67;;;;;;;;;;5033237;28;20410;-53
2022/03/27 12:18:44;;;;;;;14.37;12.87;;;;;;;;;;5031968;28;20464;-52
2022/03/27 12:21:12;;;;;;;14.60;13.10;;;;;;;;;;5031043;28;20411;-51
2022/03/27 12:23:40;;;;;;;14.43;13.13;;;;;;;;;;5033254;28;20902;-48
2022/03/27 12:31:52;;;;;;;14.50;12.97;;;;;;;;;;5032441;28;20783;-47
2022/03/27 12:34:19;;;;;;;15.40;13.73;;;;;;;;;;5032897;28;20949;-50
2022/03/27 12:37:16;;;;;;;16.80;15.10;;;;;;;;;;5032782;28;20406;-51
2022/03/27 12:39:48;;;;;;;17.20;14.20;;;;;;;;;;5032515;28;20957;-48
2022/03/27 12:42:29;;;;;;;15.97;14.30;;;;;;;;;;5031234;28;20944;-49
2022/03/27 12:44:55;;;;;;;13.47;12.27;;;;;;;;;;5032682;28;20486;-49
2022/03/27 12:47:32;;;;;;;14.00;12.50;;;;;;;;;;5032567;28;20402;-51
2022/03/27 12:49:59;;;;;;;14.63;13.23;;;;;;;;;;5032118;28;20450;-51
2022/03/27 12:52:25;;;;;;;13.83;11.70;;;;;;;;;;5032334;28;20517;-51
2022/03/27 12:54:58;;;;;;;12.50;11.40;;;;;;;;;;5032390;28;20506;-48
2022/03/27 12:57:25;;;;;;;12.80;11.60;;;;;;;;;;5032639;28;20761;-49
2022/03/27 12:59:52;;;;;;;12.03;10.90;;;;;;;;;;5031977;28;20481;-49
2022/03/27 13:02:28;;;;;;;12.87;11.70;;;;;;;;;;5030779;28;20418;-51
2022/03/27 13:05:01;;;;;;;13.27;12.07;;;;;;;;;;5031017;28;20426;-49
2022/03/27 13:07:45;;;;;;;12.53;11.33;;;;;;;;;;5030543;28;20406;-50
2022/03/27 13:10:12;;;;;;;12.57;11.47;;;;;;;;;;5030872;28;20460;-50
2022/03/27 13:12:41;;;;;;;12.50;11.30;;;;;;;;;;5031969;28;20434;-49
2022/03/27 13:15:07;;;;;;;13.63;12.33;;;;;;;;;;5032195;28;20404;-52
2022/03/27 13:17:34;;;;;;;11.80;10.70;;;;;;;;;;5032227;28;20752;-53
2022/03/27 13:20:03;;;;;;;12.67;10.87;;;;;;;;;;5031984;28;20458;-52
2022/03/27 13:22:30;;;;;;;11.60;10.50;;;;;;;;;;5032079;28;20417;-52
2022/03/27 13:24:57;;;;;;;10.50;9.60;;;;;;;;;;5031968;28;20937;-51
2022/03/27 13:27:23;;;;;;;13.60;12.30;;;;;;;;;;5032160;28;20406;-53
2022/03/27 13:29:50;;;;;;;12.67;11.37;;;;;;;;;;5031945;28;20434;-52
2022/03/27 13:32:17;;;;;;;11.63;10.63;;;;;;;;;;5031891;28;20960;-53
2022/03/27 13:34:43;;;;;;;11.20;10.20;;;;;;;;;;5032010;28;20420;-52
2022/03/27 13:37:10;;;;;;;11.07;10.13;;;;;;;;;;5031428;28;20963;-52
2022/03/27 13:39:36;;;;;;;11.73;9.47;;;;;;;;;;5031451;28;20797;-52
2022/03/27 13:44:47;;;;;;;9.30;8.50;;;;;;;;;;5031781;28;20494;-53
2022/03/27 13:47:14;;;;;;;9.13;8.33;;;;;;;;;;5031871;28;20480;-52
2022/03/27 13:49:41;;;;;;;11.73;9.00;;;;;;;;;;5031436;28;20426;-53
2022/03/27 13:52:07;;;;;;;8.37;7.67;;;;;;;;;;5031663;28;20418;-52
2022/03/27 13:54:33;;;;;;;10.70;9.70;;;;;;;;;;5031742;28;20398;-51
2022/03/27 13:57:00;;;;;;;12.27;11.00;;;;;;;;;;5031714;28;20409;-51
2022/03/27 13:59:26;;;;;;;9.97;9.17;;;;;;;;;;5031291;28;20553;-53
2022/03/27 14:01:52;;;;;;;9.80;8.90;;;;;;;;;;5031711;28;20925;-52
2022/03/27 14:04:18;;;;;;;10.73;9.63;;;;;;;;;;5031689;28;20410;-53
2022/03/27 14:06:45;;;;;;;9.50;8.50;;;;;;;;;;5031633;28;20402;-50
2022/03/27 14:09:11;;;;;;;9.47;8.57;;;;;;;;;;5032086;28;20406;-52
2022/03/27 14:11:40;;;;;;;8.90;8.00;;;;;;;;;;5031513;28;20780;-49
2022/03/27 14:14:06;;;;;;;8.63;7.93;;;;;;;;;;5014368;28;20417;-51
2022/03/27 14:16:32;;;;;;;9.30;8.60;;;;;;;;;;5031595;28;20414;-53
2022/03/27 14:18:59;;;;;;;8.53;7.80;;;;;;;;;;5031452;28;20540;-47
2022/03/27 14:21:25;;;;;;;9.63;8.60;;;;;;;;;;5031368;28;20398;-51
2022/03/27 14:23:51;;;;;;;10.50;9.53;;;;;;;;;;5031472;28;20770;-52
2022/03/27 14:26:18;;;;;;;9.03;8.13;;;;;;;;;;5031526;28;20808;-53
2022/03/27 14:28:44;;;;;;;9.07;8.33;;;;;;;;;;5031427;28;20422;-52
2022/03/27 14:31:10;;;;;;;10.53;9.70;;;;;;;;;;5031300;28;20469;-52
2022/03/27 14:33:36;;;;;;;10.13;9.33;;;;;;;;;;5030935;28;20418;-53
2022/03/27 14:36:02;;;;;;;9.67;8.87;;;;;;;;;;5032302;28;20405;-52
2022/03/27 14:38:28;;;;;;;10.57;9.63;;;;;;;;;;5035144;28;20776;-53
2022/03/27 14:40:58;;;;;;;9.27;8.37;;;;;;;;;;5034744;28;20457;-53
2022/03/27 14:43:26;;;;;;;8.77;8.00;;;;;;;;;;5035246;28;20800;-53